UAL683 KPSP-KLAX
Flight info
| Callsign | UAL683 |
|---|---|
| Flight time | 0h 25m |
| Altitude | 16000 |
| Route | PSP V388 LENHO SEAVU SEAVU2 |
| Aircraft | B737/M-SDE2E3FGHIRWXY/LB1 |
Departure
| Time | 2026-05-08 19:41 |
|---|---|
| Airport | Palm Springs International Airport (KPSP) |
Arrival
| Time | 2026-05-08 20:07 |
|---|---|
| Airport | Los Angeles International Airport (KLAX) |
| Time | Latitude | Longitude | Altitude | Speed | Heading |
|---|---|---|---|---|---|
| 2026-05-08 19:16 | 33.82257 | -116.50625 | 426 ft | 0 kts | 322° |
| 2026-05-08 19:33 | 33.82246 | -116.50615 | 426 ft | 4 kts | 322° |
| 2026-05-08 19:33 | 33.82224 | -116.50595 | 421 ft | 4 kts | 323° |
| 2026-05-08 19:34 | 33.82208 | -116.50580 | 419 ft | 4 kts | 327° |
| 2026-05-08 19:34 | 33.82186 | -116.50570 | 419 ft | 1 kts | 360° |
| 2026-05-08 19:34 | 33.82169 | -116.50570 | 426 ft | 0 kts | 360° |
| 2026-05-08 19:37 | 33.82175 | -116.50570 | 426 ft | 4 kts | 0° |
| 2026-05-08 19:38 | 33.82226 | -116.50549 | 414 ft | 9 kts | 42° |
| 2026-05-08 19:38 | 33.82269 | -116.50483 | 416 ft | 13 kts | 53° |
| 2026-05-08 19:38 | 33.82325 | -116.50393 | 414 ft | 9 kts | 94° |
| 2026-05-08 19:38 | 33.82279 | -116.50357 | 411 ft | 8 kts | 149° |
| 2026-05-08 19:39 | 33.82233 | -116.50318 | 409 ft | 8 kts | 143° |
| 2026-05-08 19:39 | 33.82172 | -116.50263 | 415 ft | 15 kts | 143° |
| 2026-05-08 19:39 | 33.82079 | -116.50181 | 410 ft | 18 kts | 143° |
| 2026-05-08 19:39 | 33.81975 | -116.50088 | 406 ft | 20 kts | 143° |
| 2026-05-08 19:40 | 33.81861 | -116.49984 | 410 ft | 21 kts | 140° |
| 2026-05-08 19:40 | 33.81855 | -116.49842 | 411 ft | 16 kts | 57° |
| 2026-05-08 19:40 | 33.81933 | -116.49847 | 410 ft | 4 kts | 322° |
| 2026-05-08 19:40 | 33.81945 | -116.49858 | 410 ft | 15 kts | 322° |
| 2026-05-08 19:41 | 33.82226 | -116.50107 | 408 ft | 85 kts | 323° |
| 2026-05-08 19:41 | 33.82866 | -116.50679 | 433 ft | 140 kts | 323° |
| 2026-05-08 19:41 | 33.83752 | -116.51457 | 658 ft | 166 kts | 324° |
| 2026-05-08 19:41 | 33.84694 | -116.52302 | 1270 ft | 170 kts | 322° |
| 2026-05-08 19:42 | 33.85713 | -116.52980 | 1891 ft | 170 kts | 348° |
| 2026-05-08 19:42 | 33.86914 | -116.52955 | 2399 ft | 185 kts | 17° |
| 2026-05-08 19:42 | 33.88087 | -116.52101 | 2740 ft | 210 kts | 47° |
| 2026-05-08 19:42 | 33.88827 | -116.50519 | 3112 ft | 229 kts | 76° |
| 2026-05-08 19:43 | 33.88850 | -116.48530 | 3460 ft | 251 kts | 102° |
| 2026-05-08 19:43 | 33.88257 | -116.46454 | 3882 ft | 271 kts | 111° |
| 2026-05-08 19:43 | 33.87575 | -116.44345 | 4638 ft | 276 kts | 109° |
| 2026-05-08 19:43 | 33.86952 | -116.42129 | 5405 ft | 282 kts | 108° |
| 2026-05-08 19:44 | 33.86346 | -116.39872 | 6284 ft | 285 kts | 108° |
| 2026-05-08 19:44 | 33.85745 | -116.37572 | 7121 ft | 289 kts | 108° |
| 2026-05-08 19:44 | 33.85151 | -116.35261 | 8090 ft | 289 kts | 108° |
| 2026-05-08 19:44 | 33.84562 | -116.32938 | 9080 ft | 291 kts | 111° |
| 2026-05-08 19:45 | 33.83523 | -116.30871 | 10084 ft | 290 kts | 136° |
| 2026-05-08 19:45 | 33.81848 | -116.29546 | 10971 ft | 294 kts | 160° |
| 2026-05-08 19:45 | 33.79804 | -116.29175 | 11720 ft | 304 kts | 185° |
| 2026-05-08 19:45 | 33.77763 | -116.29882 | 12525 ft | 311 kts | 209° |
| 2026-05-08 19:46 | 33.76098 | -116.31558 | 13323 ft | 318 kts | 233° |
| 2026-05-08 19:46 | 33.75120 | -116.33936 | 14168 ft | 321 kts | 258° |
| 2026-05-08 19:46 | 33.75753 | -116.39088 | 15673 ft | 317 kts | 303° |
| 2026-05-08 19:47 | 33.77227 | -116.41041 | 15979 ft | 319 kts | 326° |
| 2026-05-08 19:47 | 33.79210 | -116.42156 | 15995 ft | 314 kts | 348° |
| 2026-05-08 19:47 | 33.81403 | -116.42521 | 16026 ft | 336 kts | 355° |
| 2026-05-08 19:47 | 33.83829 | -116.42744 | 16020 ft | 363 kts | 355° |
| 2026-05-08 19:48 | 33.86354 | -116.43508 | 16000 ft | 388 kts | 333° |
| 2026-05-08 19:48 | 33.88521 | -116.45577 | 16014 ft | 410 kts | 310° |
| 2026-05-08 19:48 | 33.89923 | -116.48648 | 16012 ft | 428 kts | 289° |
| 2026-05-08 19:48 | 33.90658 | -116.52143 | 15989 ft | 430 kts | 283° |
| 2026-05-08 19:49 | 33.91280 | -116.55603 | 15989 ft | 428 kts | 283° |
| 2026-05-08 19:49 | 33.91924 | -116.59148 | 15984 ft | 428 kts | 284° |
| 2026-05-08 19:49 | 33.92588 | -116.62605 | 15990 ft | 429 kts | 284° |
| 2026-05-08 19:49 | 33.93286 | -116.66090 | 15995 ft | 429 kts | 285° |
| 2026-05-08 19:50 | 33.94001 | -116.69590 | 16003 ft | 430 kts | 285° |
| 2026-05-08 19:50 | 33.94667 | -116.73098 | 16011 ft | 430 kts | 281° |
| 2026-05-08 19:50 | 33.94917 | -116.76684 | 16030 ft | 431 kts | 270° |
| 2026-05-08 19:50 | 33.94797 | -116.80285 | 16047 ft | 430 kts | 268° |
| 2026-05-08 19:51 | 33.94634 | -116.83884 | 16044 ft | 430 kts | 268° |
| 2026-05-08 19:51 | 33.94471 | -116.87484 | 16059 ft | 430 kts | 268° |
| 2026-05-08 19:51 | 33.94321 | -116.91074 | 16081 ft | 429 kts | 268° |
| 2026-05-08 19:51 | 33.94182 | -116.94666 | 16080 ft | 429 kts | 268° |
| 2026-05-08 19:52 | 33.94051 | -116.98254 | 16080 ft | 428 kts | 268° |
| 2026-05-08 19:52 | 33.93922 | -117.01838 | 16089 ft | 428 kts | 268° |
| 2026-05-08 19:52 | 33.93794 | -117.05421 | 16088 ft | 428 kts | 268° |
| 2026-05-08 19:52 | 33.93665 | -117.09008 | 16075 ft | 428 kts | 268° |
| 2026-05-08 19:53 | 33.93534 | -117.12587 | 16079 ft | 428 kts | 268° |
| 2026-05-08 19:53 | 33.93403 | -117.16131 | 16087 ft | 428 kts | 268° |
| 2026-05-08 19:53 | 33.93250 | -117.19754 | 16118 ft | 429 kts | 268° |
| 2026-05-08 19:53 | 33.93083 | -117.23297 | 16123 ft | 429 kts | 267° |
| 2026-05-08 19:54 | 33.92912 | -117.26885 | 16121 ft | 430 kts | 267° |
| 2026-05-08 19:54 | 33.92741 | -117.30529 | 16121 ft | 430 kts | 268° |
| 2026-05-08 19:54 | 33.92773 | -117.34100 | 16110 ft | 422 kts | 277° |
| 2026-05-08 19:54 | 33.93290 | -117.37512 | 16129 ft | 406 kts | 285° |
| 2026-05-08 19:55 | 33.94207 | -117.40652 | 16135 ft | 390 kts | 295° |
| 2026-05-08 19:55 | 33.95305 | -117.43572 | 16129 ft | 376 kts | 295° |
| 2026-05-08 19:55 | 33.96345 | -117.46385 | 16119 ft | 358 kts | 295° |
| 2026-05-08 19:55 | 33.97297 | -117.49068 | 16118 ft | 339 kts | 290° |
| 2026-05-08 19:56 | 33.97907 | -117.51738 | 16072 ft | 324 kts | 283° |
| 2026-05-08 19:56 | 33.98329 | -117.54319 | 15813 ft | 312 kts | 281° |
| 2026-05-08 19:56 | 33.98724 | -117.56873 | 15181 ft | 310 kts | 282° |
| 2026-05-08 19:56 | 33.99140 | -117.59434 | 14519 ft | 311 kts | 282° |
| 2026-05-08 19:57 | 33.99576 | -117.61978 | 13915 ft | 309 kts | 282° |
| 2026-05-08 19:57 | 34.00018 | -117.64505 | 13297 ft | 306 kts | 282° |
| 2026-05-08 19:57 | 34.00458 | -117.67000 | 12664 ft | 303 kts | 282° |
| 2026-05-08 19:57 | 34.00647 | -117.69505 | 12015 ft | 302 kts | 264° |
| 2026-05-08 19:58 | 34.00392 | -117.72005 | 11435 ft | 298 kts | 262° |
| 2026-05-08 19:58 | 34.00123 | -117.74477 | 10849 ft | 296 kts | 262° |
| 2026-05-08 19:58 | 33.99860 | -117.76929 | 10274 ft | 294 kts | 261° |
| 2026-05-08 19:58 | 33.99611 | -117.79369 | 9679 ft | 292 kts | 262° |
| 2026-05-08 19:59 | 33.99370 | -117.81784 | 9094 ft | 289 kts | 262° |
| 2026-05-08 19:59 | 33.99136 | -117.84184 | 8576 ft | 286 kts | 263° |
| 2026-05-08 19:59 | 33.98908 | -117.86533 | 8325 ft | 287 kts | 263° |
| 2026-05-08 19:59 | 33.98675 | -117.88924 | 7972 ft | 286 kts | 263° |
| 2026-05-08 20:00 | 33.98447 | -117.91255 | 7615 ft | 276 kts | 263° |
| 2026-05-08 20:00 | 33.98222 | -117.93535 | 7275 ft | 272 kts | 264° |
| 2026-05-08 20:00 | 33.98000 | -117.95794 | 6935 ft | 271 kts | 264° |
| 2026-05-08 20:00 | 33.97778 | -117.98042 | 6585 ft | 270 kts | 264° |
| 2026-05-08 20:01 | 33.97556 | -118.00289 | 6245 ft | 269 kts | 265° |
| 2026-05-08 20:01 | 33.97395 | -118.02522 | 5772 ft | 273 kts | 266° |
| 2026-05-08 20:01 | 33.97221 | -118.04788 | 5400 ft | 271 kts | 265° |
| 2026-05-08 20:01 | 33.97006 | -118.06999 | 5056 ft | 261 kts | 264° |
| 2026-05-08 20:02 | 33.96782 | -118.09126 | 4723 ft | 251 kts | 264° |
| 2026-05-08 20:02 | 33.96563 | -118.11175 | 4396 ft | 243 kts | 264° |
| 2026-05-08 20:02 | 33.96353 | -118.13158 | 4099 ft | 235 kts | 264° |
| 2026-05-08 20:02 | 33.96151 | -118.15080 | 3803 ft | 228 kts | 265° |
| 2026-05-08 20:03 | 33.95955 | -118.16947 | 3517 ft | 223 kts | 264° |
| 2026-05-08 20:03 | 33.95763 | -118.18785 | 3253 ft | 219 kts | 264° |
| 2026-05-08 20:03 | 33.95575 | -118.20581 | 2959 ft | 214 kts | 264° |
| 2026-05-08 20:03 | 33.95392 | -118.22337 | 2683 ft | 209 kts | 263° |
| 2026-05-08 20:04 | 33.95212 | -118.24061 | 2417 ft | 204 kts | 263° |
| 2026-05-08 20:04 | 33.95039 | -118.25721 | 2145 ft | 193 kts | 262° |
| 2026-05-08 20:04 | 33.94880 | -118.27251 | 1890 ft | 175 kts | 262° |
| 2026-05-08 20:04 | 33.94735 | -118.28645 | 1676 ft | 161 kts | 261° |
| 2026-05-08 20:05 | 33.94600 | -118.29942 | 1511 ft | 154 kts | 261° |
| 2026-05-08 20:05 | 33.94469 | -118.31205 | 1271 ft | 145 kts | 261° |
| 2026-05-08 20:05 | 33.94349 | -118.32356 | 1068 ft | 133 kts | 261° |
| 2026-05-08 20:05 | 33.94233 | -118.33435 | 850 ft | 127 kts | 262° |
| 2026-05-08 20:06 | 33.94129 | -118.34459 | 701 ft | 121 kts | 263° |
| 2026-05-08 20:06 | 33.94023 | -118.35479 | 596 ft | 126 kts | 262° |
| 2026-05-08 20:06 | 33.93909 | -118.36533 | 430 ft | 129 kts | 263° |
| 2026-05-08 20:06 | 33.93808 | -118.37621 | 245 ft | 132 kts | 261° |
| 2026-05-08 20:07 | 33.93689 | -118.38718 | 106 ft | 131 kts | 262° |
| 2026-05-08 20:07 | 33.93592 | -118.39680 | 94 ft | 95 kts | 263° |
| 2026-05-08 20:07 | 33.93578 | -118.40203 | 94 ft | 24 kts | 286° |
| 2026-05-08 20:07 | 33.93622 | -118.40375 | 94 ft | 19 kts | 278° |
| 2026-05-08 20:08 | 33.93617 | -118.40536 | 94 ft | 19 kts | 264° |
| 2026-05-08 20:08 | 33.93599 | -118.40689 | 93 ft | 18 kts | 261° |
| 2026-05-08 20:08 | 33.93604 | -118.40836 | 94 ft | 18 kts | 288° |
| 2026-05-08 20:08 | 33.93701 | -118.40904 | 94 ft | 17 kts | 352° |
| 2026-05-08 20:09 | 33.93791 | -118.40852 | 93 ft | 16 kts | 77° |
| 2026-05-08 20:09 | 33.93805 | -118.40719 | 93 ft | 16 kts | 84° |
| 2026-05-08 20:09 | 33.93817 | -118.40590 | 93 ft | 15 kts | 80° |
| 2026-05-08 20:09 | 33.93830 | -118.40478 | 95 ft | 14 kts | 82° |
| 2026-05-08 20:10 | 33.93842 | -118.40361 | 94 ft | 14 kts | 82° |
| 2026-05-08 20:10 | 33.93853 | -118.40249 | 96 ft | 13 kts | 83° |
| 2026-05-08 20:10 | 33.93865 | -118.40141 | 97 ft | 13 kts | 82° |
| 2026-05-08 20:10 | 33.93875 | -118.40066 | 95 ft | 6 kts | 64° |
| 2026-05-08 20:11 | 33.93913 | -118.40050 | 94 ft | 7 kts | 357° |
| 2026-05-08 20:11 | 33.93973 | -118.40058 | 93 ft | 11 kts | 353° |
| 2026-05-08 20:11 | 33.94048 | -118.40070 | 94 ft | 11 kts | 351° |
| 2026-05-08 20:11 | 33.94114 | -118.40073 | 92 ft | 5 kts | 40° |
| 2026-05-08 20:12 | 33.94118 | -118.40045 | 92 ft | 3 kts | 91° |
| 2026-05-08 20:12 | 33.94117 | -118.40030 | 92 ft | 0 kts | 94° |
| 2026-05-08 20:12 | 33.94117 | -118.40026 | 92 ft | 0 kts | 94° |
| 2026-05-08 20:12 | 33.94116 | -118.40022 | 92 ft | 0 kts | 94° |